N371JC KRNO-KSDL
Flight info
| Callsign | N371JC |
|---|---|
| Flight time | 1h 16m |
| Altitude | 45000 |
| Route | YERIN LIDAT J92 BLD KIDDR DSERT2 |
| Aircraft | GLF5/M-SFGHIRWXY/S |
Departure
| Time | 2026-05-05 01:04 |
|---|---|
| Airport | Reno Tahoe International Airport (KRNO) |
Arrival
| Time | 2026-05-05 02:21 |
|---|---|
| Airport | Scottsdale Airport (KSDL) |
| Time | Latitude | Longitude | Altitude | Speed | Heading |
|---|---|---|---|---|---|
| 2026-05-05 00:52 | 39.51255 | -119.76396 | 4418 ft | 0 kts | 360° |
| 2026-05-05 01:00 | 39.51260 | -119.76396 | 4418 ft | 2 kts | 360° |
| 2026-05-05 01:00 | 39.51281 | -119.76397 | 4419 ft | 1 kts | 356° |
| 2026-05-05 01:00 | 39.51285 | -119.76398 | 4419 ft | 0 kts | 356° |
| 2026-05-05 01:01 | 39.51286 | -119.76398 | 4419 ft | 0 kts | 355° |
| 2026-05-05 01:01 | 39.51287 | -119.76398 | 4419 ft | 0 kts | 355° |
| 2026-05-05 01:01 | 39.51296 | -119.76411 | 4419 ft | 8 kts | 290° |
| 2026-05-05 01:02 | 39.51305 | -119.76501 | 4419 ft | 10 kts | 311° |
| 2026-05-05 01:02 | 39.51362 | -119.76524 | 4420 ft | 6 kts | 338° |
| 2026-05-05 01:02 | 39.51369 | -119.76535 | 4420 ft | 1 kts | 288° |
| 2026-05-05 01:02 | 39.51376 | -119.76606 | 4421 ft | 9 kts | 270° |
| 2026-05-05 01:03 | 39.51360 | -119.76668 | 4420 ft | 6 kts | 210° |
| 2026-05-05 01:03 | 39.51335 | -119.76675 | 4420 ft | 0 kts | 178° |
| 2026-05-05 01:04 | 39.51304 | -119.76671 | 4419 ft | 17 kts | 180° |
| 2026-05-05 01:04 | 39.50243 | -119.76641 | 4416 ft | 151 kts | 178° |
| 2026-05-05 01:04 | 39.49184 | -119.76694 | 5322 ft | 150 kts | 184° |
| 2026-05-05 01:05 | 39.48076 | -119.76783 | 5577 ft | 181 kts | 182° |
| 2026-05-05 01:05 | 39.46875 | -119.76836 | 6795 ft | 168 kts | 181° |
| 2026-05-05 01:05 | 39.45666 | -119.76874 | 7438 ft | 183 kts | 181° |
| 2026-05-05 01:05 | 39.44398 | -119.76904 | 8248 ft | 187 kts | 180° |
| 2026-05-05 01:06 | 39.43100 | -119.76930 | 9038 ft | 192 kts | 180° |
| 2026-05-05 01:06 | 39.41771 | -119.76938 | 9820 ft | 196 kts | 179° |
| 2026-05-05 01:06 | 39.40391 | -119.76944 | 10597 ft | 201 kts | 178° |
| 2026-05-05 01:06 | 39.38990 | -119.76949 | 11389 ft | 205 kts | 177° |
| 2026-05-05 01:07 | 39.37513 | -119.76950 | 11743 ft | 237 kts | 177° |
| 2026-05-05 01:07 | 39.35656 | -119.76952 | 11754 ft | 292 kts | 178° |
| 2026-05-05 01:07 | 39.33448 | -119.76910 | 11822 ft | 338 kts | 171° |
| 2026-05-05 01:07 | 39.31246 | -119.75784 | 12369 ft | 355 kts | 141° |
| 2026-05-05 01:08 | 39.29531 | -119.73513 | 13394 ft | 359 kts | 126° |
| 2026-05-05 01:08 | 39.27886 | -119.71062 | 14549 ft | 366 kts | 127° |
| 2026-05-05 01:08 | 39.26192 | -119.68605 | 15745 ft | 371 kts | 127° |
| 2026-05-05 01:08 | 39.24476 | -119.66126 | 16830 ft | 378 kts | 127° |
| 2026-05-05 01:09 | 39.22720 | -119.63596 | 17955 ft | 383 kts | 127° |
| 2026-05-05 01:09 | 39.20945 | -119.61042 | 19074 ft | 389 kts | 127° |
| 2026-05-05 01:09 | 39.19127 | -119.58427 | 20243 ft | 394 kts | 126° |
| 2026-05-05 01:09 | 39.17310 | -119.55817 | 21411 ft | 397 kts | 127° |
| 2026-05-05 01:10 | 39.15453 | -119.53153 | 22421 ft | 405 kts | 127° |
| 2026-05-05 01:10 | 39.13450 | -119.50644 | 23413 ft | 413 kts | 131° |
| 2026-05-05 01:10 | 39.11369 | -119.48068 | 24363 ft | 420 kts | 130° |
| 2026-05-05 01:10 | 39.09267 | -119.45454 | 25360 ft | 425 kts | 130° |
| 2026-05-05 01:11 | 39.07137 | -119.42811 | 26289 ft | 431 kts | 130° |
| 2026-05-05 01:11 | 39.04979 | -119.40137 | 27240 ft | 435 kts | 130° |
| 2026-05-05 01:11 | 39.02784 | -119.37417 | 28079 ft | 441 kts | 130° |
| 2026-05-05 01:11 | 39.00631 | -119.34563 | 28913 ft | 445 kts | 128° |
| 2026-05-05 01:12 | 38.98501 | -119.31690 | 29720 ft | 451 kts | 128° |
| 2026-05-05 01:12 | 38.96319 | -119.28739 | 30570 ft | 455 kts | 128° |
| 2026-05-05 01:12 | 38.94114 | -119.25753 | 31180 ft | 460 kts | 128° |
| 2026-05-05 01:12 | 38.91934 | -119.22807 | 31964 ft | 460 kts | 129° |
| 2026-05-05 01:13 | 38.89723 | -119.19819 | 32667 ft | 461 kts | 130° |
| 2026-05-05 01:13 | 38.87534 | -119.16866 | 33321 ft | 460 kts | 130° |
| 2026-05-05 01:13 | 38.85325 | -119.13886 | 33947 ft | 460 kts | 131° |
| 2026-05-05 01:13 | 38.83147 | -119.10954 | 34652 ft | 458 kts | 132° |
| 2026-05-05 01:14 | 38.80938 | -119.07980 | 35176 ft | 461 kts | 133° |
| 2026-05-05 01:14 | 38.78731 | -119.05012 | 35890 ft | 458 kts | 133° |
| 2026-05-05 01:14 | 38.76545 | -119.02075 | 36400 ft | 459 kts | 134° |
| 2026-05-05 01:14 | 38.74336 | -118.99113 | 36928 ft | 460 kts | 135° |
| 2026-05-05 01:15 | 38.72129 | -118.96157 | 37368 ft | 463 kts | 135° |
| 2026-05-05 01:15 | 38.69901 | -118.93173 | 37882 ft | 464 kts | 137° |
| 2026-05-05 01:15 | 38.67684 | -118.90206 | 38364 ft | 465 kts | 137° |
| 2026-05-05 01:15 | 38.65454 | -118.87228 | 38956 ft | 464 kts | 137° |
| 2026-05-05 01:16 | 38.63245 | -118.84281 | 39527 ft | 463 kts | 137° |
| 2026-05-05 01:16 | 38.61021 | -118.81317 | 40057 ft | 464 kts | 137° |
| 2026-05-05 01:16 | 38.58790 | -118.78340 | 40510 ft | 465 kts | 137° |
| 2026-05-05 01:16 | 38.56558 | -118.75370 | 41118 ft | 463 kts | 138° |
| 2026-05-05 01:17 | 38.54310 | -118.72383 | 41364 ft | 467 kts | 137° |
| 2026-05-05 01:17 | 38.52079 | -118.69416 | 41970 ft | 464 kts | 137° |
| 2026-05-05 01:17 | 38.49824 | -118.66424 | 42431 ft | 464 kts | 137° |
| 2026-05-05 01:17 | 38.47597 | -118.63470 | 42829 ft | 464 kts | 137° |
| 2026-05-05 01:18 | 38.43155 | -118.57584 | 42936 ft | 463 kts | 137° |
| 2026-05-05 01:18 | 38.38670 | -118.51656 | 42906 ft | 461 kts | 137° |
| 2026-05-05 01:19 | 38.34234 | -118.45800 | 42903 ft | 459 kts | 137° |
| 2026-05-05 01:19 | 38.29811 | -118.39976 | 42904 ft | 459 kts | 137° |
| 2026-05-05 01:20 | 38.25382 | -118.34156 | 42892 ft | 458 kts | 138° |
| 2026-05-05 01:20 | 38.20912 | -118.28295 | 42886 ft | 469 kts | 138° |
| 2026-05-05 01:21 | 38.16299 | -118.22253 | 42888 ft | 488 kts | 138° |
| 2026-05-05 01:21 | 38.11465 | -118.15936 | 42884 ft | 506 kts | 138° |
| 2026-05-05 01:22 | 38.06512 | -118.09476 | 42872 ft | 522 kts | 138° |
| 2026-05-05 01:22 | 38.01422 | -118.02849 | 42891 ft | 530 kts | 139° |
| 2026-05-05 01:23 | 37.96270 | -117.96153 | 42884 ft | 529 kts | 139° |
| 2026-05-05 01:23 | 37.91137 | -117.89502 | 42903 ft | 528 kts | 139° |
| 2026-05-05 01:24 | 37.86013 | -117.82876 | 42909 ft | 528 kts | 138° |
| 2026-05-05 01:24 | 37.80898 | -117.76273 | 42902 ft | 528 kts | 139° |
| 2026-05-05 01:25 | 37.75775 | -117.69676 | 42929 ft | 527 kts | 139° |
| 2026-05-05 01:25 | 37.70645 | -117.63085 | 42922 ft | 525 kts | 139° |
| 2026-05-05 01:26 | 37.65532 | -117.56527 | 42910 ft | 526 kts | 139° |
| 2026-05-05 01:26 | 37.60439 | -117.50010 | 42905 ft | 526 kts | 139° |
| 2026-05-05 01:27 | 37.55282 | -117.43423 | 42910 ft | 524 kts | 139° |
| 2026-05-05 01:27 | 37.50170 | -117.36907 | 42902 ft | 525 kts | 139° |
| 2026-05-05 01:28 | 37.45014 | -117.30352 | 42899 ft | 526 kts | 139° |
| 2026-05-05 01:28 | 37.39381 | -117.24729 | 42903 ft | 516 kts | 150° |
| 2026-05-05 01:29 | 37.33448 | -117.19682 | 42909 ft | 517 kts | 150° |
| 2026-05-05 01:29 | 37.27496 | -117.14637 | 42902 ft | 517 kts | 151° |
| 2026-05-05 01:30 | 37.21529 | -117.09588 | 42891 ft | 517 kts | 151° |
| 2026-05-05 01:30 | 37.15556 | -117.04546 | 42897 ft | 518 kts | 150° |
| 2026-05-05 01:31 | 37.09578 | -116.99508 | 42889 ft | 517 kts | 151° |
| 2026-05-05 01:31 | 37.03637 | -116.94511 | 42888 ft | 517 kts | 151° |
| 2026-05-05 01:32 | 36.97671 | -116.89501 | 42897 ft | 516 kts | 151° |
| 2026-05-05 01:32 | 36.91677 | -116.84480 | 42886 ft | 517 kts | 151° |
| 2026-05-05 01:33 | 36.85682 | -116.79467 | 42906 ft | 517 kts | 152° |
| 2026-05-05 01:33 | 36.79993 | -116.73899 | 42874 ft | 531 kts | 134° |
| 2026-05-05 01:34 | 36.78037 | -116.69961 | 42892 ft | 542 kts | 122° |
| 2026-05-05 01:34 | 36.76323 | -116.65798 | 42864 ft | 544 kts | 122° |
| 2026-05-05 01:34 | 36.72826 | -116.57391 | 42875 ft | 544 kts | 123° |
| 2026-05-05 01:35 | 36.69332 | -116.49026 | 42867 ft | 544 kts | 123° |
| 2026-05-05 01:35 | 36.65834 | -116.40677 | 42865 ft | 546 kts | 123° |
| 2026-05-05 01:36 | 36.62324 | -116.32317 | 42872 ft | 546 kts | 124° |
| 2026-05-05 01:36 | 36.58802 | -116.23950 | 42873 ft | 545 kts | 124° |
| 2026-05-05 01:37 | 36.55309 | -116.15673 | 42869 ft | 546 kts | 124° |
| 2026-05-05 01:37 | 36.51768 | -116.07309 | 42891 ft | 547 kts | 124° |
| 2026-05-05 01:38 | 36.48231 | -115.98966 | 42907 ft | 548 kts | 124° |
| 2026-05-05 01:38 | 36.44683 | -115.90622 | 42641 ft | 542 kts | 125° |
| 2026-05-05 01:39 | 36.42919 | -115.86482 | 42015 ft | 542 kts | 126° |
| 2026-05-05 01:39 | 36.41180 | -115.82400 | 41287 ft | 534 kts | 126° |
| 2026-05-05 01:39 | 36.39477 | -115.78407 | 40537 ft | 527 kts | 127° |
| 2026-05-05 01:39 | 36.37748 | -115.74366 | 39807 ft | 519 kts | 127° |
| 2026-05-05 01:40 | 36.36079 | -115.70467 | 39119 ft | 512 kts | 128° |
| 2026-05-05 01:40 | 36.34421 | -115.66600 | 38415 ft | 506 kts | 129° |
| 2026-05-05 01:40 | 36.32775 | -115.62762 | 37733 ft | 499 kts | 129° |
| 2026-05-05 01:40 | 36.31158 | -115.59005 | 37047 ft | 493 kts | 129° |
| 2026-05-05 01:41 | 36.29568 | -115.55306 | 36357 ft | 489 kts | 130° |
| 2026-05-05 01:41 | 36.27959 | -115.51580 | 35663 ft | 487 kts | 130° |
| 2026-05-05 01:41 | 36.26385 | -115.47929 | 34983 ft | 485 kts | 130° |
| 2026-05-05 01:41 | 36.24784 | -115.44220 | 34304 ft | 486 kts | 130° |
| 2026-05-05 01:42 | 36.23196 | -115.40550 | 33635 ft | 484 kts | 130° |
| 2026-05-05 01:42 | 36.21594 | -115.36845 | 32999 ft | 486 kts | 131° |
| 2026-05-05 01:42 | 36.19998 | -115.33168 | 32406 ft | 489 kts | 131° |
| 2026-05-05 01:42 | 36.18392 | -115.29455 | 31806 ft | 485 kts | 131° |
| 2026-05-05 01:43 | 36.16811 | -115.25819 | 31208 ft | 487 kts | 130° |
| 2026-05-05 01:43 | 36.15185 | -115.22081 | 30597 ft | 490 kts | 130° |
| 2026-05-05 01:43 | 36.13572 | -115.18378 | 29992 ft | 496 kts | 130° |
| 2026-05-05 01:43 | 36.11940 | -115.14625 | 29373 ft | 498 kts | 130° |
| 2026-05-05 01:44 | 36.10305 | -115.10877 | 28877 ft | 497 kts | 129° |
| 2026-05-05 01:44 | 36.08667 | -115.07121 | 28850 ft | 497 kts | 129° |
| 2026-05-05 01:44 | 36.05372 | -114.99580 | 28850 ft | 502 kts | 129° |
| 2026-05-05 01:45 | 36.02092 | -114.92090 | 28849 ft | 495 kts | 129° |
| 2026-05-05 01:45 | 35.98799 | -114.84543 | 28843 ft | 498 kts | 128° |
| 2026-05-05 01:46 | 35.95585 | -114.76954 | 28827 ft | 505 kts | 129° |
| 2026-05-05 01:46 | 35.92386 | -114.69413 | 28834 ft | 502 kts | 129° |
| 2026-05-05 01:47 | 35.89143 | -114.61797 | 28848 ft | 496 kts | 129° |
| 2026-05-05 01:47 | 35.85909 | -114.54223 | 28848 ft | 503 kts | 129° |
| 2026-05-05 01:48 | 35.82678 | -114.46664 | 28859 ft | 498 kts | 128° |
| 2026-05-05 01:48 | 35.79446 | -114.39128 | 28895 ft | 496 kts | 129° |
| 2026-05-05 01:49 | 35.76201 | -114.31579 | 28893 ft | 501 kts | 129° |
| 2026-05-05 01:49 | 35.72944 | -114.24004 | 28896 ft | 494 kts | 129° |
| 2026-05-05 01:50 | 35.69710 | -114.16524 | 28911 ft | 499 kts | 129° |
| 2026-05-05 01:50 | 35.66437 | -114.08955 | 28908 ft | 501 kts | 129° |
| 2026-05-05 01:51 | 35.63177 | -114.01430 | 28916 ft | 498 kts | 129° |
| 2026-05-05 01:51 | 35.59938 | -113.93978 | 28919 ft | 499 kts | 129° |
| 2026-05-05 01:52 | 35.56670 | -113.86476 | 28927 ft | 497 kts | 129° |
| 2026-05-05 01:52 | 35.53403 | -113.79000 | 28948 ft | 499 kts | 129° |
| 2026-05-05 01:53 | 35.50142 | -113.71541 | 28959 ft | 499 kts | 129° |
| 2026-05-05 01:53 | 35.46866 | -113.64060 | 28983 ft | 494 kts | 129° |
| 2026-05-05 01:54 | 35.43584 | -113.56593 | 28994 ft | 498 kts | 129° |
| 2026-05-05 01:54 | 35.40313 | -113.49170 | 29005 ft | 495 kts | 128° |
| 2026-05-05 01:55 | 35.37003 | -113.41676 | 29002 ft | 503 kts | 128° |
| 2026-05-05 01:55 | 35.33704 | -113.34210 | 28995 ft | 501 kts | 128° |
| 2026-05-05 01:56 | 35.30412 | -113.26784 | 28987 ft | 499 kts | 129° |
| 2026-05-05 01:56 | 35.27096 | -113.19327 | 29002 ft | 502 kts | 128° |
| 2026-05-05 01:57 | 35.23771 | -113.11856 | 29012 ft | 502 kts | 128° |
| 2026-05-05 01:57 | 35.20433 | -113.04375 | 29010 ft | 503 kts | 129° |
| 2026-05-05 01:58 | 35.16778 | -112.97238 | 29000 ft | 471 kts | 146° |
| 2026-05-05 01:58 | 35.11923 | -112.91960 | 28912 ft | 471 kts | 148° |
| 2026-05-05 01:59 | 35.09465 | -112.89268 | 28398 ft | 475 kts | 148° |
| 2026-05-05 01:59 | 35.07000 | -112.86558 | 27885 ft | 481 kts | 148° |
| 2026-05-05 01:59 | 35.04527 | -112.83833 | 27375 ft | 477 kts | 147° |
| 2026-05-05 01:59 | 35.02064 | -112.81127 | 26838 ft | 475 kts | 147° |
| 2026-05-05 02:00 | 34.99594 | -112.78416 | 26340 ft | 481 kts | 147° |
| 2026-05-05 02:00 | 34.97095 | -112.75673 | 25835 ft | 481 kts | 146° |
| 2026-05-05 02:00 | 34.94613 | -112.72952 | 25277 ft | 483 kts | 147° |
| 2026-05-05 02:00 | 34.92110 | -112.70212 | 24516 ft | 484 kts | 146° |
| 2026-05-05 02:01 | 34.89616 | -112.67481 | 23776 ft | 486 kts | 146° |
| 2026-05-05 02:01 | 34.87070 | -112.64696 | 23048 ft | 490 kts | 146° |
| 2026-05-05 02:01 | 34.84553 | -112.61948 | 22371 ft | 491 kts | 145° |
| 2026-05-05 02:01 | 34.82013 | -112.59175 | 21873 ft | 490 kts | 144° |
| 2026-05-05 02:02 | 34.79450 | -112.56379 | 21415 ft | 497 kts | 144° |
| 2026-05-05 02:02 | 34.76892 | -112.53590 | 21151 ft | 498 kts | 144° |
| 2026-05-05 02:02 | 34.74323 | -112.50789 | 21269 ft | 497 kts | 144° |
| 2026-05-05 02:02 | 34.71721 | -112.47958 | 21076 ft | 496 kts | 144° |
| 2026-05-05 02:03 | 34.69151 | -112.45165 | 21273 ft | 500 kts | 144° |
| 2026-05-05 02:03 | 34.66588 | -112.42378 | 21645 ft | 493 kts | 144° |
| 2026-05-05 02:03 | 34.64117 | -112.39690 | 21083 ft | 463 kts | 144° |
| 2026-05-05 02:03 | 34.62027 | -112.36789 | 20331 ft | 466 kts | 127° |
| 2026-05-05 02:04 | 34.60582 | -112.33312 | 19620 ft | 460 kts | 121° |
| 2026-05-05 02:04 | 34.59285 | -112.29840 | 18840 ft | 447 kts | 116° |
| 2026-05-05 02:04 | 34.58186 | -112.26522 | 17926 ft | 409 kts | 116° |
| 2026-05-05 02:04 | 34.57177 | -112.23503 | 17006 ft | 369 kts | 116° |
| 2026-05-05 02:05 | 34.56260 | -112.20730 | 16250 ft | 348 kts | 116° |
| 2026-05-05 02:05 | 34.55400 | -112.18076 | 15496 ft | 337 kts | 115° |
| 2026-05-05 02:05 | 34.54424 | -112.15559 | 14749 ft | 325 kts | 133° |
| 2026-05-05 02:05 | 34.52809 | -112.13795 | 14060 ft | 308 kts | 151° |
| 2026-05-05 02:06 | 34.51017 | -112.12400 | 13299 ft | 302 kts | 154° |
| 2026-05-05 02:06 | 34.49237 | -112.11133 | 12566 ft | 297 kts | 155° |
| 2026-05-05 02:06 | 34.47458 | -112.09925 | 11811 ft | 290 kts | 155° |
| 2026-05-05 02:06 | 34.45725 | -112.08775 | 11105 ft | 284 kts | 156° |
| 2026-05-05 02:07 | 34.44003 | -112.07649 | 10865 ft | 279 kts | 156° |
| 2026-05-05 02:07 | 34.42297 | -112.06539 | 10627 ft | 278 kts | 156° |
| 2026-05-05 02:07 | 34.40545 | -112.05407 | 10587 ft | 283 kts | 156° |
| 2026-05-05 02:07 | 34.38821 | -112.04294 | 10330 ft | 282 kts | 156° |
| 2026-05-05 02:08 | 34.37086 | -112.03173 | 10080 ft | 278 kts | 156° |
| 2026-05-05 02:08 | 34.35389 | -112.02079 | 9856 ft | 273 kts | 156° |
| 2026-05-05 02:08 | 34.33722 | -112.01007 | 9832 ft | 273 kts | 156° |
| 2026-05-05 02:08 | 34.32019 | -111.99912 | 9835 ft | 273 kts | 156° |
| 2026-05-05 02:09 | 34.30342 | -111.98833 | 9885 ft | 276 kts | 156° |
| 2026-05-05 02:09 | 34.28656 | -111.97749 | 9885 ft | 275 kts | 156° |
| 2026-05-05 02:09 | 34.26963 | -111.96661 | 9887 ft | 275 kts | 156° |
| 2026-05-05 02:09 | 34.25282 | -111.95579 | 9882 ft | 272 kts | 156° |
| 2026-05-05 02:10 | 34.23587 | -111.94493 | 9886 ft | 274 kts | 156° |
| 2026-05-05 02:10 | 34.21904 | -111.93413 | 9882 ft | 273 kts | 156° |
| 2026-05-05 02:10 | 34.20176 | -111.92542 | 9874 ft | 267 kts | 175° |
| 2026-05-05 02:10 | 34.18358 | -111.92741 | 9901 ft | 264 kts | 194° |
| 2026-05-05 02:11 | 34.16571 | -111.93266 | 9877 ft | 264 kts | 195° |
| 2026-05-05 02:11 | 34.14779 | -111.93803 | 9869 ft | 264 kts | 195° |
| 2026-05-05 02:11 | 34.12999 | -111.94344 | 9867 ft | 264 kts | 195° |
| 2026-05-05 02:11 | 34.11233 | -111.94884 | 9870 ft | 264 kts | 195° |
| 2026-05-05 02:12 | 34.09469 | -111.95423 | 9870 ft | 262 kts | 195° |
| 2026-05-05 02:12 | 34.05858 | -111.96532 | 9164 ft | 269 kts | 195° |
| 2026-05-05 02:12 | 34.04062 | -111.97083 | 8677 ft | 269 kts | 195° |
| 2026-05-05 02:13 | 34.02244 | -111.97641 | 8192 ft | 270 kts | 195° |
| 2026-05-05 02:13 | 34.00428 | -111.98199 | 7704 ft | 270 kts | 195° |
| 2026-05-05 02:13 | 33.98602 | -111.98759 | 7215 ft | 271 kts | 195° |
| 2026-05-05 02:13 | 33.96790 | -111.99315 | 6798 ft | 268 kts | 195° |
| 2026-05-05 02:14 | 33.94990 | -111.99866 | 6751 ft | 262 kts | 195° |
| 2026-05-05 02:14 | 33.93216 | -112.00409 | 6439 ft | 264 kts | 195° |
| 2026-05-05 02:14 | 33.91441 | -112.00952 | 6094 ft | 262 kts | 195° |
| 2026-05-05 02:14 | 33.89657 | -112.01499 | 6041 ft | 260 kts | 195° |
| 2026-05-05 02:15 | 33.87909 | -112.02033 | 6043 ft | 259 kts | 195° |
| 2026-05-05 02:15 | 33.86115 | -112.02457 | 6021 ft | 263 kts | 181° |
| 2026-05-05 02:15 | 33.84323 | -112.01894 | 5969 ft | 272 kts | 160° |
| 2026-05-05 02:15 | 33.82575 | -112.00990 | 5370 ft | 279 kts | 159° |
| 2026-05-05 02:16 | 33.80784 | -112.00051 | 4798 ft | 283 kts | 159° |
| 2026-05-05 02:16 | 33.78985 | -111.99110 | 4230 ft | 286 kts | 158° |
| 2026-05-05 02:16 | 33.77175 | -111.98164 | 4026 ft | 274 kts | 158° |
| 2026-05-05 02:16 | 33.75469 | -111.97269 | 4008 ft | 257 kts | 159° |
| 2026-05-05 02:17 | 33.73967 | -111.96253 | 3992 ft | 243 kts | 137° |
| 2026-05-05 02:17 | 33.72982 | -111.94704 | 4016 ft | 229 kts | 127° |
| 2026-05-05 02:17 | 33.72097 | -111.93157 | 4005 ft | 215 kts | 127° |
| 2026-05-05 02:17 | 33.71287 | -111.91734 | 3790 ft | 201 kts | 127° |
| 2026-05-05 02:18 | 33.70521 | -111.90382 | 3432 ft | 187 kts | 127° |
| 2026-05-05 02:18 | 33.69849 | -111.89195 | 3324 ft | 158 kts | 127° |
| 2026-05-05 02:18 | 33.69093 | -111.88345 | 3306 ft | 143 kts | 163° |
| 2026-05-05 02:18 | 33.68113 | -111.88112 | 2990 ft | 145 kts | 176° |
| 2026-05-05 02:19 | 33.67118 | -111.87969 | 2711 ft | 144 kts | 176° |
| 2026-05-05 02:19 | 33.66132 | -111.87833 | 2482 ft | 144 kts | 176° |
| 2026-05-05 02:19 | 33.65145 | -111.87928 | 2239 ft | 140 kts | 208° |
| 2026-05-05 02:19 | 33.64395 | -111.88650 | 2024 ft | 140 kts | 225° |
| 2026-05-05 02:20 | 33.63683 | -111.89453 | 1750 ft | 141 kts | 224° |
| 2026-05-05 02:20 | 33.62973 | -111.90264 | 1544 ft | 139 kts | 225° |
| 2026-05-05 02:20 | 33.62725 | -111.90548 | 1531 ft | 132 kts | 225° |
| 2026-05-05 02:20 | 33.62165 | -111.91203 | 1515 ft | 80 kts | 224° |
| 2026-05-05 02:21 | 33.61973 | -111.91449 | 1515 ft | 15 kts | 291° |
| 2026-05-05 02:21 | 33.62037 | -111.91542 | 1515 ft | 13 kts | 314° |
| 2026-05-05 02:21 | 33.62072 | -111.91612 | 1515 ft | 0 kts | 241° |
| 2026-05-05 02:21 | 33.62061 | -111.91631 | 1515 ft | 4 kts | 207° |
| 2026-05-05 02:22 | 33.62059 | -111.91631 | 1515 ft | 0 kts | 186° |